Terminal Aerodrome Forecast
Issued by NWS

Current Version | Previous Version | Text Only | Print | Product List | Glossary On
Versions: 1 2 3 4 5 6 7 8 9 10 11 12 13 14 15 16 17 18 19 20
829
FTUS41 KPBZ 161120
TAFDUJ
TAF
KDUJ 161120Z 1612/1712 12003KT P6SM BKN200
     FM162000 14005KT P6SM BKN050
     FM170000 13005KT P6SM OVC010
     FM170300 11005KT P6SM OVC008
     FM170700 12005KT 2SM -RA BR OVC006=

USA.gov is the U.S. government's official web portal to all federal, state and local government web resources and services.